createdAt,value
2018-06-19T00:02:20.066Z,94658.97
2018-06-19T00:04:48.713Z,94661.62
2018-06-19T00:07:17.527Z,94654.94
2018-06-19T00:09:46.211Z,94658.45
2018-06-19T00:12:14.910Z,94655.81
2018-06-19T00:14:43.612Z,94657.02
2018-06-19T00:17:12.361Z,94658.20
2018-06-19T00:19:45.425Z,94654.95
2018-06-19T00:22:14.160Z,94651.32
2018-06-19T00:24:42.838Z,94651.10
2018-06-19T00:27:12.426Z,94651.70
2018-06-19T00:29:41.115Z,94644.76
2018-06-19T00:32:09.800Z,94651.02
2018-06-19T00:34:38.536Z,94646.81
2018-06-19T00:37:07.228Z,94653.68
2018-06-19T00:39:35.854Z,94650.67
2018-06-19T00:42:04.538Z,94646.56
2018-06-19T00:44:33.208Z,94641.00
2018-06-19T00:47:01.855Z,94644.86
2018-06-19T00:49:30.562Z,94646.78
2018-06-19T00:51:59.182Z,94651.59
2018-06-19T00:54:27.902Z,94648.22
2018-06-19T00:56:59.824Z,94655.49
2018-06-19T00:59:28.550Z,94661.73
2018-06-19T01:01:58.797Z,94660.30
2018-06-19T01:04:27.439Z,94658.46
2018-06-19T01:06:56.105Z,94655.12
2018-06-19T01:09:24.721Z,94652.72
2018-06-19T01:11:53.425Z,94655.36
2018-06-19T01:14:22.099Z,94652.95
2018-06-19T01:16:50.737Z,94659.52
2018-06-19T01:19:19.399Z,94660.52
2018-06-19T01:21:48.010Z,94659.28
2018-06-19T01:24:16.673Z,94657.89
2018-06-19T01:26:45.322Z,94655.43
2018-06-19T01:29:14.006Z,94660.25
2018-06-19T01:31:42.645Z,94661.09
2018-06-19T01:34:11.291Z,94651.41
2018-06-19T01:36:39.926Z,94654.70
2018-06-19T01:39:10.204Z,94652.08
2018-06-19T01:41:38.902Z,94656.52
2018-06-19T01:44:07.619Z,94653.98
2018-06-19T01:46:36.237Z,94656.21
2018-06-19T01:49:05.088Z,94656.13
2018-06-19T01:51:33.780Z,94660.45
2018-06-19T01:54:02.425Z,94666.52
2018-06-19T01:56:31.059Z,94667.53
2018-06-19T01:58:59.743Z,94665.00
2018-06-19T02:01:28.358Z,94671.34
2018-06-19T02:03:56.997Z,94677.61
2018-06-19T02:06:25.623Z,94672.80
2018-06-19T02:08:54.287Z,94678.60
2018-06-19T02:11:23.003Z,94683.03
2018-06-19T02:13:51.651Z,94681.75
2018-06-19T02:16:20.323Z,94686.59
2018-06-19T02:18:49.017Z,94684.77
2018-06-19T02:21:17.683Z,94688.41
2018-06-19T02:23:46.294Z,94686.88
2018-06-19T02:26:15.000Z,94686.69
2018-06-19T02:28:43.724Z,94694.05
2018-06-19T02:31:12.416Z,94688.36
2018-06-19T02:33:41.034Z,94691.20
2018-06-19T02:36:09.729Z,94700.61
2018-06-19T02:38:38.420Z,94703.56
2018-06-19T02:41:07.156Z,94703.17
2018-06-19T02:43:35.819Z,94698.41
2018-06-19T02:46:04.484Z,94702.96
2018-06-19T02:48:33.117Z,94705.67
2018-06-19T02:51:01.736Z,94703.97
2018-06-19T02:53:30.424Z,94704.27
2018-06-19T02:55:59.120Z,94702.75
2018-06-19T02:58:27.759Z,94702.05
2018-06-19T03:00:56.410Z,94709.00
2018-06-19T03:03:25.098Z,94710.67
2018-06-19T03:05:53.746Z,94708.45
2018-06-19T03:08:22.400Z,94718.24
2018-06-19T03:10:51.026Z,94720.95
2018-06-19T03:13:19.747Z,94719.22
2018-06-19T03:15:48.445Z,94719.61
2018-06-19T03:18:17.104Z,94713.05
2018-06-19T03:20:45.789Z,94721.53
2018-06-19T03:23:14.444Z,94713.34
2018-06-19T03:25:43.074Z,94720.03
2018-06-19T03:28:11.737Z,94719.70
2018-06-19T03:30:40.463Z,94723.14
2018-06-19T03:33:09.291Z,94720.82
2018-06-19T03:35:37.917Z,94720.08
2018-06-19T03:38:06.616Z,94724.63
2018-06-19T03:40:35.261Z,94722.61
2018-06-19T03:43:04.041Z,94724.29
2018-06-19T03:45:32.731Z,94726.64
2018-06-19T03:48:01.430Z,94733.20
2018-06-19T03:50:30.074Z,94737.31
2018-06-19T03:52:58.756Z,94736.37
2018-06-19T03:55:27.446Z,94736.05
2018-06-19T03:57:56.127Z,94737.06
2018-06-19T04:00:24.837Z,94736.45
2018-06-19T04:02:53.510Z,94733.03
2018-06-19T04:05:22.203Z,94735.18
2018-06-19T04:07:50.976Z,94742.76
2018-06-19T04:10:19.692Z,94743.80
2018-06-19T04:12:48.358Z,94748.70
2018-06-19T04:15:17.098Z,94747.73
2018-06-19T04:17:45.737Z,94746.73
2018-06-19T04:20:14.400Z,94745.12
2018-06-19T04:22:43.056Z,94748.44
2018-06-19T04:25:11.748Z,94754.56
2018-06-19T04:27:40.458Z,94751.20
2018-06-19T04:30:09.134Z,94753.21
2018-06-19T04:32:37.968Z,94750.20
2018-06-19T04:35:06.650Z,94755.98
2018-06-19T04:37:35.314Z,94756.94
2018-06-19T04:40:04.612Z,94757.77
2018-06-19T04:42:33.334Z,94757.09
2018-06-19T04:45:02.059Z,94760.12
2018-06-19T04:47:30.731Z,94761.45
2018-06-19T04:49:59.439Z,94765.95
2018-06-19T04:52:28.167Z,94762.80
2018-06-19T04:54:56.823Z,94772.17
2018-06-19T04:57:25.538Z,94773.13
2018-06-19T04:59:54.207Z,94768.39
2018-06-19T05:02:23.163Z,94771.41
2018-06-19T05:04:51.811Z,94771.98
2018-06-19T05:07:20.501Z,94768.74
2018-06-19T05:09:49.182Z,94775.03
2018-06-19T05:12:17.828Z,94780.63
2018-06-19T05:14:46.492Z,94788.32
2018-06-19T05:17:15.193Z,94795.64
2018-06-19T05:19:43.912Z,94796.23
2018-06-19T05:22:12.575Z,94791.91
2018-06-19T05:24:41.494Z,94794.45
2018-06-19T05:27:10.195Z,94793.63
2018-06-19T05:29:38.881Z,94795.33
2018-06-19T05:32:07.547Z,94796.09
2018-06-19T05:34:36.217Z,94799.03
2018-06-19T05:37:04.924Z,94809.81
2018-06-19T05:39:33.677Z,94811.28
2018-06-19T05:42:02.326Z,94806.12
2018-06-19T05:44:30.996Z,94805.38
2018-06-19T05:46:59.745Z,94809.25
2018-06-19T05:49:28.388Z,94812.93
2018-06-19T05:51:56.989Z,94812.86
2018-06-19T05:54:25.717Z,94805.97
2018-06-19T05:56:54.371Z,94805.82
2018-06-19T05:59:23.059Z,94814.47
2018-06-19T06:01:51.784Z,94813.23
2018-06-19T06:04:20.514Z,94811.44
2018-06-19T06:06:49.178Z,94814.86
2018-06-19T06:09:17.878Z,94818.45
2018-06-19T06:11:46.622Z,94821.96
2018-06-19T06:14:15.390Z,94821.28
2018-06-19T06:16:44.136Z,94813.88
2018-06-19T06:19:12.780Z,94814.23
2018-06-19T06:21:41.470Z,94819.74
2018-06-19T06:24:10.145Z,94822.51
2018-06-19T06:26:38.845Z,94824.67
2018-06-19T06:29:07.673Z,94826.88
2018-06-19T06:31:36.455Z,94827.66
2018-06-19T06:34:05.150Z,94828.69
2018-06-19T06:36:33.771Z,94826.00
2018-06-19T06:39:03.600Z,94831.45
2018-06-19T06:41:32.294Z,94830.38
2018-06-19T06:44:01.008Z,94828.45
2018-06-19T06:46:29.797Z,94830.23
2018-06-19T06:48:58.537Z,94825.02
2018-06-19T06:51:27.185Z,94830.12
2018-06-19T06:53:56.078Z,94830.94
2018-06-19T06:56:24.742Z,94824.89
2018-06-19T06:58:53.862Z,94833.64
2018-06-19T07:01:22.631Z,94831.81
2018-06-19T07:03:51.286Z,94831.43
2018-06-19T07:06:19.910Z,94831.42
2018-06-19T07:08:48.608Z,94829.45
2018-06-19T07:11:17.290Z,94828.83
2018-06-19T07:13:45.963Z,94828.23
2018-06-19T07:16:14.656Z,94824.56
2018-06-19T07:18:43.626Z,94820.13
2018-06-19T07:21:12.347Z,94820.76
2018-06-19T07:23:40.991Z,94815.97
2018-06-19T07:26:09.761Z,94826.59
2018-06-19T07:28:38.407Z,94826.70
2018-06-19T07:31:07.107Z,94820.09
2018-06-19T07:33:35.740Z,94823.13
2018-06-19T07:36:04.396Z,94825.52
2018-06-19T07:38:34.035Z,94824.44
2018-06-19T07:41:02.801Z,94823.75
2018-06-19T07:43:31.492Z,94829.75
2018-06-19T07:46:00.263Z,94821.36
2018-06-19T07:48:28.906Z,94826.33
2018-06-19T07:50:57.732Z,94806.06
2018-06-19T07:53:26.396Z,94817.86
2018-06-19T07:55:55.054Z,94822.27
2018-06-19T07:58:23.781Z,94819.13
2018-06-19T08:00:52.491Z,94817.30
2018-06-19T08:03:21.151Z,94813.33
2018-06-19T08:05:49.844Z,94819.14
2018-06-19T08:08:18.482Z,94824.25
2018-06-19T08:10:47.167Z,94821.93
2018-06-19T08:13:15.795Z,94822.91
2018-06-19T08:15:44.511Z,94819.13
2018-06-19T08:18:13.184Z,94822.17
2018-06-19T08:20:41.821Z,94827.26
2018-06-19T08:23:10.530Z,94827.62
2018-06-19T08:25:39.194Z,94831.80
2018-06-19T08:28:07.929Z,94826.36
2018-06-19T08:30:36.644Z,94818.09
2018-06-19T08:33:05.344Z,94826.72
2018-06-19T08:35:34.001Z,94827.67
2018-06-19T08:38:02.651Z,94824.14
2018-06-19T08:40:31.335Z,94827.27
2018-06-19T08:42:59.985Z,94829.22
2018-06-19T08:45:28.654Z,94830.09
2018-06-19T08:47:57.329Z,94841.03
2018-06-19T08:50:26.049Z,94837.49
2018-06-19T08:52:55.065Z,94834.33
2018-06-19T08:55:23.760Z,94828.34
2018-06-19T08:57:52.494Z,94825.40
2018-06-19T09:00:21.245Z,94821.78
2018-06-19T09:02:49.927Z,94822.59
2018-06-19T09:05:18.803Z,94827.77
2018-06-19T09:07:47.506Z,94825.39
2018-06-19T09:10:16.530Z,94831.89
2018-06-19T09:12:45.211Z,94820.97
2018-06-19T09:15:13.857Z,94823.37
2018-06-19T09:17:42.513Z,94816.08
2018-06-19T09:20:11.254Z,94816.23
2018-06-19T09:22:39.874Z,94825.10
2018-06-19T09:25:08.557Z,94829.92
2018-06-19T09:27:37.764Z,94828.80
2018-06-19T09:30:06.619Z,94820.58
2018-06-19T09:32:35.289Z,94826.43
2018-06-19T09:35:04.080Z,94828.41
2018-06-19T09:37:32.760Z,94821.30
2018-06-19T09:40:01.460Z,94831.34
2018-06-19T09:42:30.123Z,94825.44
2018-06-19T09:44:58.878Z,94818.87
2018-06-19T09:47:27.610Z,94820.31
2018-06-19T09:49:56.326Z,94819.14
2018-06-19T09:52:25.091Z,94819.07
2018-06-19T09:54:54.041Z,94822.81
2018-06-19T09:57:22.743Z,94817.77
2018-06-19T09:59:51.557Z,94818.52
2018-06-19T10:02:20.678Z,94816.41
2018-06-19T10:04:49.538Z,94817.69
2018-06-19T10:07:20.565Z,94812.72
2018-06-19T10:09:50.275Z,94811.16
2018-06-19T10:12:19.152Z,94817.36
2018-06-19T10:14:47.810Z,94810.78
2018-06-19T10:17:16.547Z,94800.45
2018-06-19T10:19:45.254Z,94802.84
2018-06-19T10:22:13.915Z,94799.91
2018-06-19T10:24:42.606Z,94803.89
2018-06-19T10:27:11.210Z,94802.81
2018-06-19T10:29:39.855Z,94801.23
2018-06-19T10:32:08.517Z,94808.17
2018-06-19T10:34:37.141Z,94794.26
2018-06-19T10:37:05.813Z,94792.45
2018-06-19T10:39:34.557Z,94792.73
2018-06-19T10:42:03.190Z,94791.95
2018-06-19T10:44:31.942Z,94794.66
2018-06-19T10:47:00.637Z,94790.11
2018-06-19T10:49:29.290Z,94794.89
2018-06-19T10:51:57.957Z,94791.41
2018-06-19T10:54:26.581Z,94782.36
2018-06-19T10:56:55.322Z,94780.79
2018-06-19T10:59:23.996Z,94784.76
2018-06-19T11:01:52.665Z,94775.19
2018-06-19T11:04:21.310Z,94776.48
2018-06-19T11:06:49.969Z,94778.58
2018-06-19T11:09:18.650Z,94783.22
2018-06-19T11:11:47.443Z,94774.37
2018-06-19T11:14:16.131Z,94775.59
2018-06-19T11:16:44.775Z,94773.33
2018-06-19T11:19:13.419Z,94782.19
2018-06-19T11:21:42.134Z,94776.99
2018-06-19T11:24:10.741Z,94778.64
2018-06-19T11:26:39.394Z,94777.53
2018-06-19T11:29:08.105Z,94775.28
2018-06-19T11:31:36.710Z,94776.77
2018-06-19T11:34:05.380Z,94773.48
2018-06-19T11:36:34.025Z,94768.66
2018-06-19T11:39:02.762Z,94770.95
2018-06-19T11:41:31.412Z,94773.76
2018-06-19T11:44:00.138Z,94768.88
2018-06-19T11:46:28.796Z,94778.38
2018-06-19T11:48:57.431Z,94776.28
2018-06-19T11:51:26.143Z,94768.06
2018-06-19T11:53:54.820Z,94759.73
2018-06-19T11:56:23.438Z,94758.19
2018-06-19T11:58:52.877Z,94761.39
2018-06-19T12:01:22.297Z,94753.45
2018-06-19T12:03:51.229Z,94756.23
2018-06-19T12:06:20.482Z,94755.09
2018-06-19T12:08:49.149Z,94757.80
2018-06-19T12:11:17.748Z,94754.98
2018-06-19T12:13:46.449Z,94754.25
2018-06-19T12:20:51.662Z,94753.60
2018-06-19T12:23:20.447Z,94759.28
2018-06-19T12:25:49.115Z,94760.91
2018-06-19T12:28:17.826Z,94757.84
2018-06-19T12:30:46.519Z,94762.56
2018-06-19T12:33:15.193Z,94763.33
2018-06-19T12:35:44.202Z,94756.93
2018-06-19T12:38:13.137Z,94757.98
2018-06-19T12:40:41.954Z,94749.81
2018-06-19T12:43:10.626Z,94750.56
2018-06-19T12:45:39.278Z,94747.44
2018-06-19T12:48:07.926Z,94742.52
2018-06-19T12:50:47.573Z,94746.65
2018-06-19T12:53:27.083Z,94734.63
2018-06-19T12:56:06.686Z,94737.31
2018-06-19T12:58:35.390Z,94723.84
2018-06-19T13:01:04.074Z,94726.88
2018-06-19T13:03:43.670Z,94719.72
2018-06-19T13:06:23.545Z,94725.61
2018-06-19T13:08:52.198Z,94719.48
2018-06-19T13:11:20.863Z,94720.22
2018-06-19T13:14:00.506Z,94722.50
2018-06-19T13:16:40.346Z,94726.02
2018-06-19T13:19:24.284Z,94724.14
2018-06-19T13:21:53.159Z,94724.33
2018-06-19T13:24:22.302Z,94732.52
2018-06-19T13:26:51.187Z,94730.02
2018-06-19T13:29:43.270Z,94729.52
2018-06-19T13:32:11.939Z,94731.62
2018-06-19T13:34:40.690Z,94740.59
2018-06-19T13:37:09.331Z,94736.92
2018-06-19T13:39:38.837Z,94740.65
2018-06-19T13:42:22.753Z,94741.22
2018-06-19T13:44:58.166Z,94740.00
2018-06-19T13:47:26.846Z,94735.16
2018-06-19T13:49:55.525Z,94745.41
2018-06-19T13:52:24.263Z,94747.20
2018-06-19T13:54:53.155Z,94741.81
2018-06-19T13:57:36.952Z,94739.72
2018-06-19T14:00:08.934Z,94745.44
2018-06-19T14:02:37.585Z,94742.41
2018-06-19T14:05:07.037Z,94747.54
2018-06-19T14:07:41.490Z,94747.17
2018-06-19T14:10:25.828Z,94756.20
2018-06-19T14:13:08.985Z,94764.26
2018-06-19T14:15:46.651Z,94748.00
2018-06-19T14:18:16.150Z,94749.20
2018-06-19T14:20:44.925Z,94744.78
2018-06-19T14:23:13.920Z,94742.46
2018-06-19T14:25:42.641Z,94739.20
2018-06-19T14:28:11.367Z,94743.13
2018-06-19T14:30:40.033Z,94741.89
2018-06-19T14:33:08.805Z,94741.33
2018-06-19T14:35:37.438Z,94729.91
2018-06-19T14:38:06.174Z,94732.52
2018-06-19T14:40:34.874Z,94724.84
2018-06-19T14:43:03.517Z,94724.60
2018-06-19T14:45:32.119Z,94719.63
2018-06-19T14:48:00.763Z,94727.48
2018-06-19T14:50:29.438Z,94715.98
2018-06-19T14:52:58.168Z,94715.84
2018-06-19T14:55:26.855Z,94719.63
2018-06-19T14:57:55.596Z,94718.00
2018-06-19T15:00:24.865Z,94711.80
2018-06-19T15:02:53.500Z,94717.86
2018-06-19T15:05:22.123Z,94722.72
2018-06-19T15:07:54.258Z,94722.16
2018-06-19T15:10:23.396Z,94718.25
2018-06-19T15:12:52.121Z,94718.41
2018-06-19T15:15:20.832Z,94719.16
2018-06-19T15:17:49.587Z,94718.28
2018-06-19T15:20:18.532Z,94711.81
2018-06-19T15:22:47.246Z,94714.88
2018-06-19T15:25:15.908Z,94717.89
2018-06-19T15:27:44.603Z,94711.05
2018-06-19T15:30:13.279Z,94713.05
2018-06-19T15:32:41.921Z,94717.53
2018-06-19T15:35:10.566Z,94724.22
2018-06-19T15:37:39.227Z,94725.84
2018-06-19T15:40:07.947Z,94727.07
2018-06-19T15:42:36.563Z,94732.14
2018-06-19T15:45:05.274Z,94735.69
2018-06-19T15:47:33.937Z,94732.06
2018-06-19T15:50:02.618Z,94736.69
2018-06-19T15:52:31.278Z,94734.70
2018-06-19T15:54:59.919Z,94744.32
2018-06-19T15:57:28.546Z,94748.69
2018-06-19T15:59:57.226Z,94753.18
2018-06-19T16:02:25.873Z,94754.09
2018-06-19T16:04:54.651Z,94759.11
2018-06-19T16:07:23.357Z,94762.89
2018-06-19T16:09:52.006Z,94770.27
2018-06-19T16:12:20.654Z,94773.55
2018-06-19T16:14:49.384Z,94773.93
2018-06-19T16:17:18.069Z,94783.86
2018-06-19T16:19:46.783Z,94782.58
2018-06-19T16:22:15.447Z,94788.75
2018-06-19T16:24:44.081Z,94789.04
2018-06-19T16:27:12.739Z,94790.38
2018-06-19T16:29:41.389Z,94795.16
2018-06-19T16:32:10.123Z,94802.06
2018-06-19T16:34:38.777Z,94793.02
2018-06-19T16:37:07.460Z,94803.88
2018-06-19T16:39:36.091Z,94807.88
2018-06-19T16:42:04.810Z,94808.98
2018-06-19T16:44:33.434Z,94806.09
2018-06-19T16:47:02.156Z,94806.08
2018-06-19T16:49:31.996Z,94808.74
2018-06-19T16:52:00.723Z,94812.72
2018-06-19T16:54:29.375Z,94809.00
2018-06-19T16:56:58.084Z,94820.21
2018-06-19T16:59:26.850Z,94825.55
2018-06-19T17:01:56.090Z,94829.81
2018-06-19T17:04:24.823Z,94833.80
2018-06-19T17:06:53.626Z,94834.33
2018-06-19T17:09:22.284Z,94838.88
2018-06-19T17:11:50.993Z,94836.48
2018-06-19T18:53:31.850Z,94916.05
2018-06-19T18:56:00.589Z,94918.98
2018-06-19T18:58:29.547Z,94919.11
2018-06-19T19:00:58.238Z,94924.79
2018-06-19T19:03:26.922Z,94932.93
2018-06-19T19:05:55.588Z,94927.44
2018-06-19T19:08:25.382Z,94930.17
2018-06-19T19:10:55.339Z,94936.30
2018-06-19T19:13:25.296Z,94939.36
2018-06-19T19:15:59.205Z,94937.09
2018-06-19T19:18:33.079Z,94944.45
2018-06-19T19:21:02.273Z,94945.03
2018-06-19T19:23:31.314Z,94947.15
2018-06-19T19:26:00.038Z,94953.68
2018-06-19T19:30:39.820Z,94947.59
2018-06-19T19:33:08.617Z,94946.17
2018-06-19T19:35:37.275Z,94950.69
2018-06-19T19:38:11.228Z,94953.00
2018-06-19T19:40:39.974Z,94952.78
2018-06-19T19:43:08.666Z,94958.16
2018-06-19T19:45:37.338Z,94957.77
2018-06-19T19:48:11.165Z,94956.55
2018-06-19T19:50:39.882Z,94967.12
2018-06-19T19:53:09.213Z,94961.16
2018-06-19T19:55:41.997Z,94970.00
2018-06-19T19:58:15.889Z,94968.50
2018-06-19T20:00:44.673Z,94968.39
2018-06-19T20:03:13.327Z,94969.34
2018-06-19T20:05:42.064Z,94965.50
2018-06-19T20:08:10.687Z,94974.49
2018-06-19T20:10:39.377Z,94965.31
2018-06-19T20:13:08.003Z,94962.25
2018-06-19T20:15:36.786Z,94962.19
2018-06-19T20:18:05.812Z,94963.45
2018-06-19T20:20:35.095Z,94971.98
2018-06-19T20:23:03.724Z,94967.49
2018-06-19T20:25:32.535Z,94975.08
2018-06-19T20:28:01.170Z,94970.32
2018-06-19T20:30:29.962Z,94978.63
2018-06-19T20:32:59.331Z,94975.54
2018-06-19T20:35:28.000Z,94979.86
2018-06-19T20:37:56.692Z,94978.92
2018-06-19T20:40:26.392Z,94980.48
2018-06-19T20:42:55.151Z,94980.42
2018-06-19T20:45:23.928Z,94980.24
2018-06-19T20:47:52.603Z,94974.39
2018-06-19T20:50:21.277Z,94978.18
2018-06-19T20:52:49.963Z,94984.04
2018-06-19T20:55:18.617Z,94988.70
2018-06-19T20:57:47.276Z,94989.00
2018-06-19T21:00:15.974Z,94988.23
2018-06-19T21:02:44.616Z,94991.55
2018-06-19T21:05:13.309Z,94990.41
2018-06-19T21:07:41.999Z,94992.70
2018-06-19T21:10:10.607Z,94994.25
2018-06-19T21:12:39.295Z,94993.60
2018-06-19T21:15:07.987Z,94999.97
2018-06-19T21:17:36.700Z,95000.03
2018-06-19T21:20:05.358Z,94996.19
2018-06-19T21:22:34.114Z,94994.92
2018-06-19T21:25:02.840Z,95000.86
2018-06-19T21:27:31.527Z,95004.82
2018-06-19T21:30:00.277Z,95010.55
2018-06-19T21:32:28.913Z,95015.50
2018-06-19T21:34:57.666Z,95020.20
2018-06-19T21:37:26.334Z,95020.53
2018-06-19T21:39:54.962Z,95025.72
2018-06-19T21:42:23.601Z,95020.80
2018-06-19T21:44:52.225Z,95024.05
2018-06-19T21:47:20.886Z,95027.58
2018-06-19T21:49:49.560Z,95027.88
2018-06-19T21:52:18.285Z,95027.12
2018-06-19T21:54:46.967Z,95025.34
2018-06-19T21:57:15.642Z,95024.05
2018-06-19T21:59:44.499Z,95022.95
2018-06-19T22:02:17.559Z,95023.50
2018-06-19T22:04:46.176Z,95021.73
2018-06-19T22:07:14.782Z,95025.09
2018-06-19T22:09:43.406Z,95027.00
2018-06-19T22:12:12.049Z,95027.16
2018-06-19T22:14:40.761Z,95028.34
2018-06-19T22:17:09.418Z,95021.59
2018-06-19T22:19:38.084Z,95015.61
2018-06-19T22:22:06.769Z,95022.13
2018-06-19T22:24:35.455Z,95022.20
2018-06-19T22:27:05.115Z,95026.34
2018-06-19T22:29:33.766Z,95024.11
2018-06-19T22:32:02.414Z,95023.89
2018-06-19T22:34:31.134Z,95035.67
2018-06-19T22:36:59.815Z,95032.20
2018-06-19T22:39:28.688Z,95038.34
2018-06-19T22:41:57.330Z,95038.16
2018-06-19T22:44:26.062Z,95034.28
2018-06-19T22:46:54.843Z,95034.89
2018-06-19T22:49:23.524Z,95032.03
2018-06-19T22:51:52.175Z,95032.37
2018-06-19T22:54:21.119Z,95031.66
2018-06-19T22:56:49.789Z,95036.70
2018-06-19T22:59:18.478Z,95035.00
2018-06-19T23:01:47.997Z,95040.34
2018-06-19T23:04:16.647Z,95028.72
2018-06-19T23:06:45.355Z,95029.02
2018-06-19T23:09:13.990Z,95029.39
2018-06-19T23:11:42.628Z,95034.33
2018-06-19T23:14:11.277Z,95027.51
2018-06-19T23:16:39.974Z,95030.94
2018-06-19T23:19:08.656Z,95034.47
2018-06-19T23:21:37.355Z,95033.58
2018-06-19T23:24:05.957Z,95033.30
2018-06-19T23:26:34.657Z,95033.05
2018-06-19T23:29:03.422Z,95031.04
2018-06-19T23:31:32.322Z,95020.80
2018-06-19T23:34:01.047Z,95029.13
2018-06-19T23:36:29.860Z,95023.62
2018-06-19T23:38:58.542Z,95015.98
2018-06-19T23:41:27.290Z,95019.48
2018-06-19T23:43:55.929Z,95019.48
2018-06-19T23:46:24.631Z,95022.44
2018-06-19T23:48:53.262Z,95019.23
2018-06-19T23:51:21.966Z,95022.77
2018-06-19T23:53:50.635Z,95018.64
2018-06-19T23:56:19.293Z,95021.06
2018-06-19T23:58:47.982Z,95022.20
